createdAt,value
2018-09-04T00:04:15.103Z,68.8
2018-09-04T00:21:03.599Z,68.4
2018-09-04T00:37:52.315Z,68.4
2018-09-04T00:54:40.720Z,68.4
2018-09-04T01:11:29.386Z,68.0
2018-09-04T01:28:18.045Z,67.6
2018-09-04T01:45:06.703Z,67.6
2018-09-04T02:01:55.448Z,68.0
2018-09-04T02:18:44.186Z,67.6
2018-09-04T02:35:32.967Z,67.6
2018-09-04T02:52:21.660Z,67.2
2018-09-04T03:09:10.614Z,67.2
2018-09-04T03:25:59.058Z,67.2
2018-09-04T03:42:47.805Z,67.2
2018-09-04T03:59:36.560Z,67.2
2018-09-04T04:16:25.494Z,67.2
2018-09-04T04:33:14.035Z,67.2
2018-09-04T04:50:02.642Z,67.6
2018-09-04T05:06:51.205Z,67.6
2018-09-04T05:23:39.834Z,67.2
2018-09-04T05:40:28.354Z,67.2
2018-09-04T05:57:16.970Z,67.6
2018-09-04T06:14:05.942Z,67.6
2018-09-04T06:30:54.557Z,67.6
2018-09-04T06:47:43.499Z,67.6
2018-09-04T07:04:32.397Z,68.0
2018-09-04T07:21:21.223Z,67.2
2018-09-04T07:38:10.621Z,67.6
2018-09-04T07:55:00.440Z,68.0
2018-09-04T08:11:49.887Z,67.6
2018-09-04T08:28:39.422Z,68.0
2018-09-04T08:45:28.885Z,68.0
2018-09-04T09:02:18.898Z,68.0
2018-09-04T09:19:09.065Z,68.0
2018-09-04T09:35:59.411Z,66.8
2018-09-04T09:52:49.056Z,66.8
2018-09-04T10:09:39.400Z,66.0
2018-09-04T10:26:30.145Z,66.0
2018-09-04T10:43:21.707Z,65.6
2018-09-04T11:00:12.251Z,65.2
2018-09-04T11:17:03.739Z,64.8
2018-09-04T11:33:56.048Z,64.4
2018-09-04T11:50:47.427Z,64.4
2018-09-04T12:07:39.654Z,63.6
2018-09-04T12:24:32.042Z,63.2
2018-09-04T12:41:24.555Z,62.0
2018-09-04T12:58:17.457Z,61.6
2018-09-04T13:15:10.453Z,60.4
2018-09-04T13:32:03.511Z,60.4
2018-09-04T13:45:35.863Z,58.4
2018-09-04T14:02:27.524Z,59.2
2018-09-04T14:19:20.665Z,59.2
2018-09-04T14:36:14.313Z,59.2
2018-09-04T14:53:07.527Z,58.4
2018-09-04T14:59:52.568Z,60.4
2018-09-04T15:13:22.822Z,61.2
2018-09-04T15:30:15.428Z,62.4
2018-09-04T15:47:07.752Z,63.6
2018-09-04T16:03:59.990Z,63.6
2018-09-04T16:20:52.126Z,63.6
2018-09-04T16:37:44.144Z,64.0
2018-09-04T16:54:36.206Z,64.0
2018-09-04T17:11:28.243Z,64.0
2018-09-04T17:28:20.708Z,63.2
2018-09-04T17:45:12.227Z,63.6
2018-09-04T18:02:04.238Z,64.8
2018-09-04T18:18:56.589Z,64.0
2018-09-04T18:35:47.839Z,63.6
2018-09-04T18:52:39.743Z,64.0
2018-09-04T19:09:31.554Z,64.4
2018-09-04T19:26:22.945Z,64.0
2018-09-04T19:43:14.511Z,64.8
2018-09-04T20:00:05.156Z,64.8
2018-09-04T20:13:33.804Z,66.8
2018-09-04T20:30:24.509Z,67.2
2018-09-04T20:47:15.030Z,67.2
2018-09-04T21:04:05.605Z,67.2
2018-09-04T21:20:56.256Z,67.2
2018-09-04T21:37:51.859Z,67.2
2018-09-04T21:54:37.091Z,67.2
2018-09-04T22:11:27.109Z,67.2
2018-09-04T22:28:17.251Z,66.8
2018-09-04T22:45:07.411Z,66.8
2018-09-04T23:01:57.456Z,66.8
2018-09-04T23:18:47.376Z,66.8
2018-09-04T23:35:37.362Z,66.8
2018-09-04T23:52:27.381Z,66.8
